sensor_id;sensor_type;location;lat;lon;timestamp;P1;P2;P0
76421;PMS5003;65254;52.354;13.614;2024-01-16T00:00:00;2;2;
76421;PMS5003;65254;52.354;13.614;2024-01-16T00:04:00;2;2;
76421;PMS5003;65254;52.354;13.614;2024-01-16T00:08:00;3;3;
76421;PMS5003;65254;52.354;13.614;2024-01-16T00:12:01;2;2;
76421;PMS5003;65254;52.354;13.614;2024-01-16T00:16:01;2;2;
76421;PMS5003;65254;52.354;13.614;2024-01-16T00:20:00;2;2;
76421;PMS5003;65254;52.354;13.614;2024-01-16T00:24:00;2;2;
76421;PMS5003;65254;52.354;13.614;2024-01-16T00:28:01;2;2;
76421;PMS5003;65254;52.354;13.614;2024-01-16T00:32:00;2;2;
76421;PMS5003;65254;52.354;13.614;2024-01-16T00:36:00;2;2;
76421;PMS5003;65254;52.354;13.614;2024-01-16T00:40:00;3;3;
76421;PMS5003;65254;52.354;13.614;2024-01-16T00:44:00;2;2;
76421;PMS5003;65254;52.354;13.614;2024-01-16T00:48:00;2;2;
76421;PMS5003;65254;52.354;13.614;2024-01-16T00:52:00;2;2;
76421;PMS5003;65254;52.354;13.614;2024-01-16T00:56:01;2;2;
76421;PMS5003;65254;52.354;13.614;2024-01-16T01:00:00;2;2;
76421;PMS5003;65254;52.354;13.614;2024-01-16T01:04:00;2;2;
76421;PMS5003;65254;52.354;13.614;2024-01-16T01:08:00;2;2;
76421;PMS5003;65254;52.354;13.614;2024-01-16T01:12:00;2;2;
76421;PMS5003;65254;52.354;13.614;2024-01-16T01:16:00;2;2;
76421;PMS5003;65254;52.354;13.614;2024-01-16T01:20:00;2;2;
76421;PMS5003;65254;52.354;13.614;2024-01-16T01:24:00;2;2;
76421;PMS5003;65254;52.354;13.614;2024-01-16T01:28:00;2;2;
76421;PMS5003;65254;52.354;13.614;2024-01-16T01:32:00;2;2;
76421;PMS5003;65254;52.354;13.614;2024-01-16T01:36:00;2;2;
76421;PMS5003;65254;52.354;13.614;2024-01-16T01:40:00;1;1;
76421;PMS5003;65254;52.354;13.614;2024-01-16T01:44:00;1;1;
76421;PMS5003;65254;52.354;13.614;2024-01-16T01:48:01;1;1;
76421;PMS5003;65254;52.354;13.614;2024-01-16T01:52:00;1;1;
76421;PMS5003;65254;52.354;13.614;2024-01-16T01:56:02;1;1;
76421;PMS5003;65254;52.354;13.614;2024-01-16T02:00:00;1;1;
76421;PMS5003;65254;52.354;13.614;2024-01-16T02:04:01;0;0;
76421;PMS5003;65254;52.354;13.614;2024-01-16T02:08:02;1;1;
76421;PMS5003;65254;52.354;13.614;2024-01-16T02:12:00;0;0;
76421;PMS5003;65254;52.354;13.614;2024-01-16T02:16:00;1;1;
76421;PMS5003;65254;52.354;13.614;2024-01-16T02:20:00;0;0;
76421;PMS5003;65254;52.354;13.614;2024-01-16T02:24:00;0;0;
76421;PMS5003;65254;52.354;13.614;2024-01-16T02:28:01;1;1;
76421;PMS5003;65254;52.354;13.614;2024-01-16T02:32:00;0;0;
76421;PMS5003;65254;52.354;13.614;2024-01-16T02:36:00;0;0;
76421;PMS5003;65254;52.354;13.614;2024-01-16T02:40:00;1;1;
76421;PMS5003;65254;52.354;13.614;2024-01-16T02:44:00;0;0;
76421;PMS5003;65254;52.354;13.614;2024-01-16T02:48:01;0;0;
76421;PMS5003;65254;52.354;13.614;2024-01-16T02:52:00;0;0;
76421;PMS5003;65254;52.354;13.614;2024-01-16T02:56:00;0;0;
76421;PMS5003;65254;52.354;13.614;2024-01-16T03:00:00;1;1;
76421;PMS5003;65254;52.354;13.614;2024-01-16T03:04:00;0;0;
76421;PMS5003;65254;52.354;13.614;2024-01-16T03:08:00;1;1;
76421;PMS5003;65254;52.354;13.614;2024-01-16T03:12:00;1;1;
76421;PMS5003;65254;52.354;13.614;2024-01-16T03:16:00;0;0;
76421;PMS5003;65254;52.354;13.614;2024-01-16T03:20:00;0;0;
76421;PMS5003;65254;52.354;13.614;2024-01-16T03:24:00;1;1;
76421;PMS5003;65254;52.354;13.614;2024-01-16T03:28:00;0;0;
76421;PMS5003;65254;52.354;13.614;2024-01-16T03:32:00;1;1;
76421;PMS5003;65254;52.354;13.614;2024-01-16T03:36:01;1;1;
76421;PMS5003;65254;52.354;13.614;2024-01-16T03:40:00;0;0;
76421;PMS5003;65254;52.354;13.614;2024-01-16T03:44:00;0;0;
76421;PMS5003;65254;52.354;13.614;2024-01-16T03:48:01;0;0;
76421;PMS5003;65254;52.354;13.614;2024-01-16T03:52:00;1;1;
76421;PMS5003;65254;52.354;13.614;2024-01-16T03:56:00;1;1;
76421;PMS5003;65254;52.354;13.614;2024-01-16T04:00:00;1;1;
76421;PMS5003;65254;52.354;13.614;2024-01-16T04:04:00;0;0;
76421;PMS5003;65254;52.354;13.614;2024-01-16T04:08:00;1;1;
76421;PMS5003;65254;52.354;13.614;2024-01-16T04:12:00;1;1;
76421;PMS5003;65254;52.354;13.614;2024-01-16T04:16:00;1;1;
76421;PMS5003;65254;52.354;13.614;2024-01-16T04:20:00;1;1;
76421;PMS5003;65254;52.354;13.614;2024-01-16T04:24:00;1;1;
76421;PMS5003;65254;52.354;13.614;2024-01-16T04:28:03;1;1;
76421;PMS5003;65254;52.354;13.614;2024-01-16T04:32:00;1;1;
76421;PMS5003;65254;52.354;13.614;2024-01-16T04:36:01;1;1;
76421;PMS5003;65254;52.354;13.614;2024-01-16T04:40:00;1;1;
76421;PMS5003;65254;52.354;13.614;2024-01-16T04:44:00;1;1;
76421;PMS5003;65254;52.354;13.614;2024-01-16T04:48:01;2;2;
76421;PMS5003;65254;52.354;13.614;2024-01-16T04:52:00;1;1;
76421;PMS5003;65254;52.354;13.614;2024-01-16T04:56:00;2;2;
76421;PMS5003;65254;52.354;13.614;2024-01-16T05:00:00;2;2;
76421;PMS5003;65254;52.354;13.614;2024-01-16T05:04:00;2;2;
76421;PMS5003;65254;52.354;13.614;2024-01-16T05:08:01;3;3;
76421;PMS5003;65254;52.354;13.614;2024-01-16T05:12:00;2;2;
76421;PMS5003;65254;52.354;13.614;2024-01-16T05:16:00;3;3;
76421;PMS5003;65254;52.354;13.614;2024-01-16T05:20:01;2;2;
76421;PMS5003;65254;52.354;13.614;2024-01-16T05:24:00;3;3;
76421;PMS5003;65254;52.354;13.614;2024-01-16T05:28:00;3;3;
76421;PMS5003;65254;52.354;13.614;2024-01-16T05:32:00;5;5;
76421;PMS5003;65254;52.354;13.614;2024-01-16T05:36:01;5;5;
76421;PMS5003;65254;52.354;13.614;2024-01-16T05:40:00;5;5;
76421;PMS5003;65254;52.354;13.614;2024-01-16T05:44:00;4;4;
76421;PMS5003;65254;52.354;13.614;2024-01-16T05:48:00;5;5;
76421;PMS5003;65254;52.354;13.614;2024-01-16T05:52:00;4;4;
76421;PMS5003;65254;52.354;13.614;2024-01-16T05:56:00;4;4;
76421;PMS5003;65254;52.354;13.614;2024-01-16T06:00:03;3;3;
76421;PMS5003;65254;52.354;13.614;2024-01-16T06:04:00;6;6;
76421;PMS5003;65254;52.354;13.614;2024-01-16T06:08:00;9;8;
76421;PMS5003;65254;52.354;13.614;2024-01-16T06:12:00;5;5;
76421;PMS5003;65254;52.354;13.614;2024-01-16T06:16:00;11;10;
76421;PMS5003;65254;52.354;13.614;2024-01-16T06:20:00;8;7;
76421;PMS5003;65254;52.354;13.614;2024-01-16T06:24:00;5;5;
76421;PMS5003;65254;52.354;13.614;2024-01-16T06:28:05;5;5;
76421;PMS5003;65254;52.354;13.614;2024-01-16T06:32:00;4;4;
76421;PMS5003;65254;52.354;13.614;2024-01-16T06:36:01;5;5;
76421;PMS5003;65254;52.354;13.614;2024-01-16T06:40:00;7;7;
76421;PMS5003;65254;52.354;13.614;2024-01-16T06:44:00;6;6;
76421;PMS5003;65254;52.354;13.614;2024-01-16T06:48:00;5;5;
76421;PMS5003;65254;52.354;13.614;2024-01-16T06:52:00;6;6;
76421;PMS5003;65254;52.354;13.614;2024-01-16T06:56:00;7;7;
76421;PMS5003;65254;52.354;13.614;2024-01-16T07:00:01;6;6;
76421;PMS5003;65254;52.354;13.614;2024-01-16T07:04:00;5;5;
76421;PMS5003;65254;52.354;13.614;2024-01-16T07:08:00;4;4;
76421;PMS5003;65254;52.354;13.614;2024-01-16T07:12:00;5;5;
76421;PMS5003;65254;52.354;13.614;2024-01-16T07:16:00;5;5;
76421;PMS5003;65254;52.354;13.614;2024-01-16T07:20:00;5;5;
76421;PMS5003;65254;52.354;13.614;2024-01-16T07:24:01;4;4;
76421;PMS5003;65254;52.354;13.614;2024-01-16T07:28:00;4;4;
76421;PMS5003;65254;52.354;13.614;2024-01-16T07:32:00;5;5;
76421;PMS5003;65254;52.354;13.614;2024-01-16T07:36:01;5;5;
76421;PMS5003;65254;52.354;13.614;2024-01-16T07:40:00;5;5;
76421;PMS5003;65254;52.354;13.614;2024-01-16T07:44:00;6;6;
76421;PMS5003;65254;52.354;13.614;2024-01-16T07:48:01;4;4;
76421;PMS5003;65254;52.354;13.614;2024-01-16T07:52:00;5;5;
76421;PMS5003;65254;52.354;13.614;2024-01-16T07:56:00;5;5;
76421;PMS5003;65254;52.354;13.614;2024-01-16T08:00:02;6;6;
76421;PMS5003;65254;52.354;13.614;2024-01-16T08:04:00;6;6;
76421;PMS5003;65254;52.354;13.614;2024-01-16T08:08:00;7;7;
76421;PMS5003;65254;52.354;13.614;2024-01-16T08:12:00;7;6;
76421;PMS5003;65254;52.354;13.614;2024-01-16T08:16:00;7;7;
76421;PMS5003;65254;52.354;13.614;2024-01-16T08:20:00;6;6;
76421;PMS5003;65254;52.354;13.614;2024-01-16T08:24:00;6;6;
76421;PMS5003;65254;52.354;13.614;2024-01-16T08:28:00;7;7;
76421;PMS5003;65254;52.354;13.614;2024-01-16T08:32:00;7;7;
76421;PMS5003;65254;52.354;13.614;2024-01-16T08:36:00;7;7;
76421;PMS5003;65254;52.354;13.614;2024-01-16T08:40:00;7;7;
76421;PMS5003;65254;52.354;13.614;2024-01-16T08:44:00;7;7;
76421;PMS5003;65254;52.354;13.614;2024-01-16T08:48:00;7;7;
76421;PMS5003;65254;52.354;13.614;2024-01-16T08:52:00;6;6;
76421;PMS5003;65254;52.354;13.614;2024-01-16T08:56:00;7;7;
76421;PMS5003;65254;52.354;13.614;2024-01-16T09:00:00;5;5;
76421;PMS5003;65254;52.354;13.614;2024-01-16T09:04:00;6;6;
76421;PMS5003;65254;52.354;13.614;2024-01-16T09:08:00;6;6;
76421;PMS5003;65254;52.354;13.614;2024-01-16T09:12:00;5;5;
76421;PMS5003;65254;52.354;13.614;2024-01-16T09:16:00;6;6;
76421;PMS5003;65254;52.354;13.614;2024-01-16T09:20:00;5;5;
76421;PMS5003;65254;52.354;13.614;2024-01-16T09:24:00;5;5;
76421;PMS5003;65254;52.354;13.614;2024-01-16T09:28:00;5;5;
76421;PMS5003;65254;52.354;13.614;2024-01-16T09:32:00;6;6;
76421;PMS5003;65254;52.354;13.614;2024-01-16T09:36:01;7;7;
76421;PMS5003;65254;52.354;13.614;2024-01-16T09:40:00;7;7;
76421;PMS5003;65254;52.354;13.614;2024-01-16T09:44:00;9;8;
76421;PMS5003;65254;52.354;13.614;2024-01-16T09:48:01;9;8;
76421;PMS5003;65254;52.354;13.614;2024-01-16T09:52:00;8;7;
76421;PMS5003;65254;52.354;13.614;2024-01-16T09:56:02;7;7;
76421;PMS5003;65254;52.354;13.614;2024-01-16T10:00:01;6;6;
76421;PMS5003;65254;52.354;13.614;2024-01-16T10:04:01;6;6;
76421;PMS5003;65254;52.354;13.614;2024-01-16T10:08:00;6;6;
76421;PMS5003;65254;52.354;13.614;2024-01-16T10:12:01;6;6;
76421;PMS5003;65254;52.354;13.614;2024-01-16T10:16:00;6;6;
76421;PMS5003;65254;52.354;13.614;2024-01-16T10:20:00;5;5;
76421;PMS5003;65254;52.354;13.614;2024-01-16T10:24:11;6;6;
76421;PMS5003;65254;52.354;13.614;2024-01-16T10:28:05;6;6;
76421;PMS5003;65254;52.354;13.614;2024-01-16T10:32:00;5;5;
76421;PMS5003;65254;52.354;13.614;2024-01-16T10:36:09;5;5;
76421;PMS5003;65254;52.354;13.614;2024-01-16T10:40:00;4;4;
76421;PMS5003;65254;52.354;13.614;2024-01-16T10:44:04;3;3;
76421;PMS5003;65254;52.354;13.614;2024-01-16T10:48:02;3;3;
76421;PMS5003;65254;52.354;13.614;2024-01-16T10:52:00;3;3;
76421;PMS5003;65254;52.354;13.614;2024-01-16T10:56:01;3;3;
76421;PMS5003;65254;52.354;13.614;2024-01-16T11:00:03;3;3;
76421;PMS5003;65254;52.354;13.614;2024-01-16T11:04:01;3;3;
76421;PMS5003;65254;52.354;13.614;2024-01-16T11:08:01;2;2;
76421;PMS5003;65254;52.354;13.614;2024-01-16T11:12:01;3;3;
76421;PMS5003;65254;52.354;13.614;2024-01-16T11:16:01;3;3;
76421;PMS5003;65254;52.354;13.614;2024-01-16T11:20:11;3;3;
76421;PMS5003;65254;52.354;13.614;2024-01-16T11:24:00;2;2;
76421;PMS5003;65254;52.354;13.614;2024-01-16T11:28:08;2;2;
76421;PMS5003;65254;52.354;13.614;2024-01-16T11:36:01;3;3;
76421;PMS5003;65254;52.354;13.614;2024-01-16T11:44:00;2;2;
76421;PMS5003;65254;52.354;13.614;2024-01-16T11:48:08;2;2;
76421;PMS5003;65254;52.354;13.614;2024-01-16T11:52:00;3;3;
76421;PMS5003;65254;52.354;13.614;2024-01-16T11:56:18;3;3;
76421;PMS5003;65254;52.354;13.614;2024-01-16T12:00:02;3;3;
76421;PMS5003;65254;52.354;13.614;2024-01-16T12:04:02;4;4;
76421;PMS5003;65254;52.354;13.614;2024-01-16T12:08:00;3;3;
76421;PMS5003;65254;52.354;13.614;2024-01-16T12:12:02;3;3;
76421;PMS5003;65254;52.354;13.614;2024-01-16T12:16:01;4;4;
76421;PMS5003;65254;52.354;13.614;2024-01-16T12:20:18;3;3;
76421;PMS5003;65254;52.354;13.614;2024-01-16T12:24:11;3;3;
76421;PMS5003;65254;52.354;13.614;2024-01-16T12:28:02;4;4;
76421;PMS5003;65254;52.354;13.614;2024-01-16T12:32:08;3;3;
76421;PMS5003;65254;52.354;13.614;2024-01-16T12:36:01;4;4;
76421;PMS5003;65254;52.354;13.614;2024-01-16T12:40:00;3;3;
76421;PMS5003;65254;52.354;13.614;2024-01-16T12:44:11;4;4;
76421;PMS5003;65254;52.354;13.614;2024-01-16T12:48:01;4;4;
76421;PMS5003;65254;52.354;13.614;2024-01-16T12:52:14;4;4;
76421;PMS5003;65254;52.354;13.614;2024-01-16T12:56:01;3;3;
76421;PMS5003;65254;52.354;13.614;2024-01-16T13:00:00;3;3;
76421;PMS5003;65254;52.354;13.614;2024-01-16T13:04:03;3;3;
76421;PMS5003;65254;52.354;13.614;2024-01-16T13:08:00;3;3;
76421;PMS5003;65254;52.354;13.614;2024-01-16T13:12:00;3;3;
76421;PMS5003;65254;52.354;13.614;2024-01-16T13:16:02;3;3;
76421;PMS5003;65254;52.354;13.614;2024-01-16T13:20:01;3;3;
76421;PMS5003;65254;52.354;13.614;2024-01-16T13:24:02;3;3;
76421;PMS5003;65254;52.354;13.614;2024-01-16T13:28:00;2;2;
76421;PMS5003;65254;52.354;13.614;2024-01-16T13:32:00;3;3;
76421;PMS5003;65254;52.354;13.614;2024-01-16T13:36:00;2;2;
76421;PMS5003;65254;52.354;13.614;2024-01-16T13:40:00;2;2;
76421;PMS5003;65254;52.354;13.614;2024-01-16T13:44:00;3;3;
76421;PMS5003;65254;52.354;13.614;2024-01-16T13:48:01;2;2;
76421;PMS5003;65254;52.354;13.614;2024-01-16T13:52:00;2;2;
76421;PMS5003;65254;52.354;13.614;2024-01-16T13:56:00;2;2;
76421;PMS5003;65254;52.354;13.614;2024-01-16T14:00:01;2;2;
76421;PMS5003;65254;52.354;13.614;2024-01-16T14:04:00;2;2;
76421;PMS5003;65254;52.354;13.614;2024-01-16T14:08:00;2;2;
76421;PMS5003;65254;52.354;13.614;2024-01-16T14:12:00;2;2;
76421;PMS5003;65254;52.354;13.614;2024-01-16T14:16:00;2;2;
76421;PMS5003;65254;52.354;13.614;2024-01-16T14:20:00;2;2;
76421;PMS5003;65254;52.354;13.614;2024-01-16T14:24:00;2;2;
76421;PMS5003;65254;52.354;13.614;2024-01-16T14:28:02;2;2;
76421;PMS5003;65254;52.354;13.614;2024-01-16T14:32:00;2;2;
76421;PMS5003;65254;52.354;13.614;2024-01-16T14:36:03;3;3;
76421;PMS5003;65254;52.354;13.614;2024-01-16T14:40:02;3;3;
76421;PMS5003;65254;52.354;13.614;2024-01-16T14:44:00;3;3;
76421;PMS5003;65254;52.354;13.614;2024-01-16T14:48:01;2;2;
76421;PMS5003;65254;52.354;13.614;2024-01-16T14:52:00;2;2;
76421;PMS5003;65254;52.354;13.614;2024-01-16T14:56:00;2;2;
76421;PMS5003;65254;52.354;13.614;2024-01-16T15:00:01;3;3;
76421;PMS5003;65254;52.354;13.614;2024-01-16T15:04:00;2;2;
76421;PMS5003;65254;52.354;13.614;2024-01-16T15:08:00;3;3;
76421;PMS5003;65254;52.354;13.614;2024-01-16T15:12:00;2;2;
76421;PMS5003;65254;52.354;13.614;2024-01-16T15:16:00;3;3;
76421;PMS5003;65254;52.354;13.614;2024-01-16T15:20:00;2;2;
76421;PMS5003;65254;52.354;13.614;2024-01-16T15:24:00;2;2;
76421;PMS5003;65254;52.354;13.614;2024-01-16T15:28:00;3;3;
76421;PMS5003;65254;52.354;13.614;2024-01-16T15:32:00;3;3;
76421;PMS5003;65254;52.354;13.614;2024-01-16T15:36:01;3;3;
76421;PMS5003;65254;52.354;13.614;2024-01-16T15:40:01;3;3;
76421;PMS5003;65254;52.354;13.614;2024-01-16T15:44:11;5;5;
76421;PMS5003;65254;52.354;13.614;2024-01-16T15:48:00;6;6;
76421;PMS5003;65254;52.354;13.614;2024-01-16T15:52:01;5;5;
76421;PMS5003;65254;52.354;13.614;2024-01-16T15:56:00;4;4;
76421;PMS5003;65254;52.354;13.614;2024-01-16T16:00:01;4;4;
76421;PMS5003;65254;52.354;13.614;2024-01-16T16:04:00;3;3;
76421;PMS5003;65254;52.354;13.614;2024-01-16T16:08:00;3;3;
76421;PMS5003;65254;52.354;13.614;2024-01-16T16:12:00;3;3;
76421;PMS5003;65254;52.354;13.614;2024-01-16T16:16:00;3;3;
76421;PMS5003;65254;52.354;13.614;2024-01-16T16:20:00;4;4;
76421;PMS5003;65254;52.354;13.614;2024-01-16T16:24:00;4;4;
76421;PMS5003;65254;52.354;13.614;2024-01-16T16:28:00;4;4;
76421;PMS5003;65254;52.354;13.614;2024-01-16T16:32:00;4;4;
76421;PMS5003;65254;52.354;13.614;2024-01-16T16:36:00;5;5;
76421;PMS5003;65254;52.354;13.614;2024-01-16T16:40:00;5;5;
76421;PMS5003;65254;52.354;13.614;2024-01-16T16:44:01;6;6;
76421;PMS5003;65254;52.354;13.614;2024-01-16T16:48:01;5;5;
76421;PMS5003;65254;52.354;13.614;2024-01-16T16:52:00;4;4;
76421;PMS5003;65254;52.354;13.614;2024-01-16T16:56:00;4;4;
76421;PMS5003;65254;52.354;13.614;2024-01-16T17:00:01;4;4;
76421;PMS5003;65254;52.354;13.614;2024-01-16T17:04:01;4;4;
76421;PMS5003;65254;52.354;13.614;2024-01-16T17:08:00;4;4;
76421;PMS5003;65254;52.354;13.614;2024-01-16T17:12:01;5;5;
76421;PMS5003;65254;52.354;13.614;2024-01-16T17:16:00;5;5;
76421;PMS5003;65254;52.354;13.614;2024-01-16T17:20:00;5;5;
76421;PMS5003;65254;52.354;13.614;2024-01-16T17:24:01;6;6;
76421;PMS5003;65254;52.354;13.614;2024-01-16T17:28:00;7;7;
76421;PMS5003;65254;52.354;13.614;2024-01-16T17:32:00;5;5;
76421;PMS5003;65254;52.354;13.614;2024-01-16T17:36:01;6;6;
76421;PMS5003;65254;52.354;13.614;2024-01-16T17:40:01;6;6;
76421;PMS5003;65254;52.354;13.614;2024-01-16T17:44:00;6;6;
76421;PMS5003;65254;52.354;13.614;2024-01-16T17:48:00;6;6;
76421;PMS5003;65254;52.354;13.614;2024-01-16T17:52:00;6;6;
76421;PMS5003;65254;52.354;13.614;2024-01-16T17:56:00;6;6;
76421;PMS5003;65254;52.354;13.614;2024-01-16T18:00:01;9;8;
76421;PMS5003;65254;52.354;13.614;2024-01-16T18:04:00;10;9;
76421;PMS5003;65254;52.354;13.614;2024-01-16T18:08:00;17;15;
76421;PMS5003;65254;52.354;13.614;2024-01-16T18:12:01;10;9;
76421;PMS5003;65254;52.354;13.614;2024-01-16T18:16:00;9;8;
76421;PMS5003;65254;52.354;13.614;2024-01-16T18:20:00;9;8;
76421;PMS5003;65254;52.354;13.614;2024-01-16T18:24:01;8;7;
76421;PMS5003;65254;52.354;13.614;2024-01-16T18:28:00;9;8;
76421;PMS5003;65254;52.354;13.614;2024-01-16T18:32:00;9;8;
76421;PMS5003;65254;52.354;13.614;2024-01-16T18:36:00;9;8;
76421;PMS5003;65254;52.354;13.614;2024-01-16T18:40:00;10;9;
76421;PMS5003;65254;52.354;13.614;2024-01-16T18:44:00;9;8;
76421;PMS5003;65254;52.354;13.614;2024-01-16T18:48:01;10;9;
76421;PMS5003;65254;52.354;13.614;2024-01-16T18:52:04;11;10;
76421;PMS5003;65254;52.354;13.614;2024-01-16T18:56:00;10;9;
76421;PMS5003;65254;52.354;13.614;2024-01-16T19:00:00;10;9;
76421;PMS5003;65254;52.354;13.614;2024-01-16T19:04:00;10;9;
76421;PMS5003;65254;52.354;13.614;2024-01-16T19:08:01;10;9;
76421;PMS5003;65254;52.354;13.614;2024-01-16T19:12:00;10;9;
76421;PMS5003;65254;52.354;13.614;2024-01-16T19:16:00;9;8;
76421;PMS5003;65254;52.354;13.614;2024-01-16T19:20:00;9;8;
76421;PMS5003;65254;52.354;13.614;2024-01-16T19:24:01;8;7;
76421;PMS5003;65254;52.354;13.614;2024-01-16T19:28:00;9;8;
76421;PMS5003;65254;52.354;13.614;2024-01-16T19:32:00;7;7;
76421;PMS5003;65254;52.354;13.614;2024-01-16T19:36:01;9;8;
76421;PMS5003;65254;52.354;13.614;2024-01-16T19:40:00;7;7;
76421;PMS5003;65254;52.354;13.614;2024-01-16T19:44:00;7;7;
76421;PMS5003;65254;52.354;13.614;2024-01-16T19:48:00;7;7;
76421;PMS5003;65254;52.354;13.614;2024-01-16T19:52:00;11;10;
76421;PMS5003;65254;52.354;13.614;2024-01-16T19:56:00;9;8;
76421;PMS5003;65254;52.354;13.614;2024-01-16T20:00:00;9;8;
76421;PMS5003;65254;52.354;13.614;2024-01-16T20:04:01;9;8;
76421;PMS5003;65254;52.354;13.614;2024-01-16T20:08:00;9;8;
76421;PMS5003;65254;52.354;13.614;2024-01-16T20:12:00;10;9;
76421;PMS5003;65254;52.354;13.614;2024-01-16T20:16:00;9;8;
76421;PMS5003;65254;52.354;13.614;2024-01-16T20:20:00;10;9;
76421;PMS5003;65254;52.354;13.614;2024-01-16T20:24:01;11;10;
76421;PMS5003;65254;52.354;13.614;2024-01-16T20:28:00;10;9;
76421;PMS5003;65254;52.354;13.614;2024-01-16T20:32:00;9;8;
76421;PMS5003;65254;52.354;13.614;2024-01-16T20:36:00;7;7;
76421;PMS5003;65254;52.354;13.614;2024-01-16T20:40:00;7;7;
76421;PMS5003;65254;52.354;13.614;2024-01-16T20:44:00;9;8;
76421;PMS5003;65254;52.354;13.614;2024-01-16T20:48:00;9;8;
76421;PMS5003;65254;52.354;13.614;2024-01-16T20:52:00;9;8;
76421;PMS5003;65254;52.354;13.614;2024-01-16T20:56:00;12;11;
76421;PMS5003;65254;52.354;13.614;2024-01-16T21:00:01;10;9;
76421;PMS5003;65254;52.354;13.614;2024-01-16T21:04:00;9;8;
76421;PMS5003;65254;52.354;13.614;2024-01-16T21:08:01;9;8;
76421;PMS5003;65254;52.354;13.614;2024-01-16T21:12:05;9;8;
76421;PMS5003;65254;52.354;13.614;2024-01-16T21:16:00;7;7;
76421;PMS5003;65254;52.354;13.614;2024-01-16T21:20:00;7;7;
76421;PMS5003;65254;52.354;13.614;2024-01-16T21:24:00;7;7;
76421;PMS5003;65254;52.354;13.614;2024-01-16T21:28:00;9;8;
76421;PMS5003;65254;52.354;13.614;2024-01-16T21:32:00;7;7;
76421;PMS5003;65254;52.354;13.614;2024-01-16T21:36:01;9;8;
76421;PMS5003;65254;52.354;13.614;2024-01-16T21:40:00;9;8;
76421;PMS5003;65254;52.354;13.614;2024-01-16T21:44:00;8;7;
76421;PMS5003;65254;52.354;13.614;2024-01-16T21:48:00;8;7;
76421;PMS5003;65254;52.354;13.614;2024-01-16T21:52:00;7;7;
76421;PMS5003;65254;52.354;13.614;2024-01-16T21:56:00;7;7;
76421;PMS5003;65254;52.354;13.614;2024-01-16T22:00:01;9;8;
76421;PMS5003;65254;52.354;13.614;2024-01-16T22:04:00;9;8;
76421;PMS5003;65254;52.354;13.614;2024-01-16T22:08:00;9;8;
76421;PMS5003;65254;52.354;13.614;2024-01-16T22:12:00;7;7;
76421;PMS5003;65254;52.354;13.614;2024-01-16T22:16:00;6;6;
76421;PMS5003;65254;52.354;13.614;2024-01-16T22:20:00;8;7;
76421;PMS5003;65254;52.354;13.614;2024-01-16T22:24:00;9;8;
76421;PMS5003;65254;52.354;13.614;2024-01-16T22:28:00;7;7;
76421;PMS5003;65254;52.354;13.614;2024-01-16T22:32:00;7;7;
76421;PMS5003;65254;52.354;13.614;2024-01-16T22:36:00;7;7;
76421;PMS5003;65254;52.354;13.614;2024-01-16T22:40:00;9;8;
76421;PMS5003;65254;52.354;13.614;2024-01-16T22:44:00;7;7;
76421;PMS5003;65254;52.354;13.614;2024-01-16T22:48:01;9;8;
76421;PMS5003;65254;52.354;13.614;2024-01-16T22:52:00;9;8;
76421;PMS5003;65254;52.354;13.614;2024-01-16T22:56:00;9;8;
76421;PMS5003;65254;52.354;13.614;2024-01-16T23:00:01;9;8;
76421;PMS5003;65254;52.354;13.614;2024-01-16T23:04:00;9;8;
76421;PMS5003;65254;52.354;13.614;2024-01-16T23:08:00;9;8;
76421;PMS5003;65254;52.354;13.614;2024-01-16T23:12:01;9;8;
76421;PMS5003;65254;52.354;13.614;2024-01-16T23:16:00;9;8;
76421;PMS5003;65254;52.354;13.614;2024-01-16T23:20:00;10;9;
76421;PMS5003;65254;52.354;13.614;2024-01-16T23:24:00;9;8;
76421;PMS5003;65254;52.354;13.614;2024-01-16T23:28:00;7;7;
76421;PMS5003;65254;52.354;13.614;2024-01-16T23:32:00;9;8;
76421;PMS5003;65254;52.354;13.614;2024-01-16T23:36:01;9;8;
76421;PMS5003;65254;52.354;13.614;2024-01-16T23:40:00;9;8;
76421;PMS5003;65254;52.354;13.614;2024-01-16T23:44:00;9;8;
76421;PMS5003;65254;52.354;13.614;2024-01-16T23:48:00;9;8;
76421;PMS5003;65254;52.354;13.614;2024-01-16T23:52:00;9;8;
76421;PMS5003;65254;52.354;13.614;2024-01-16T23:56:01;9;8;
